Portada
METAR-TAF:

METAR-TAF

Aeroports :

Varna, Bulgària

latitud: 43-12N, longitud: 027-55E, altitud: 41 m

Observació

L'informe es va fer fa 16 minuts, a les 22:00 UTC
Vent 15 kt del Est
Temperatura 11°C
Humitat 87%
Pressió 1013 hPa
Visibilitat 10 km o més
Escasses núvols a una alçada de 1700 ft
Núvols disperses a una alçada de 2500 ft
Cel ennuvolat a una alçada de 4900 ft

METAR: LBWN 112200Z 08015KT 9999 FEW017 SCT025 BKN049 11/09 Q1013 NOSIG

Hora: 00:16 (22:16 UTC)

Pronòstic

L'informe es va fer fa 5 hores i 16 minuts, a les 17:00 UTC
Pronòstic vàlid del 11 a les 18 UTC al 12 a les 18 UTC
Vent 12 kt del Est/Nord-Est
Visibilitat 10 km o més
Núvols disperses a una alçada de 2000 ft
Cel cobert a una alçada de 4000 ft
Temporalment
l' 11 a les 18 UTC al 12 a les 04 UTC
Visibilitat: 5000 m
Cel ennuvolat a una alçada de 1500 ft
Cel cobert a una alçada de 3000 ft
pluja

TAF: LBWN 111700Z 1118/1218 06012KT 9999 SCT020 OVC040 TEMPO 1118/1204 5000 RA BKN015 OVC030

Observacions i pronòstics meteorològics de més de 4000 aeroports (METAR i TAF).

Les estacions disponibles són els punts grocs i vermells al mapa.

Posi el ratolí al punt desitjat per veure el nom de l'estació.

Feu clic per veure les observacions i els pronòstics meteorològics.

Per canviar el mapa: feu clic els botons verds amb una creu de color negre per apropar; al botó verd amb un guió per allunyar la imatge; o en les fletxes verdes per a mapes adjacents.


METAR-TAF: